Time;durP1;ratioP1;P1;durP2;ratioP2;P2;SDS_P1;SDS_P2;PMS_P1;PMS_P2;Temp;Humidity;BMP_temperature;BMP_pressure;BME280_temperature;BME280_humidity;BME280_pressure;Samples;Min_cycle;Max_cycle;Signal;HPM_P1;HPM_P2
2023/08/22 05:58:06;;;;;;;24.00;13.87;;;16.90;99.90;;;;;;6235467;22;20285;-86
2023/08/22 06:00:41;;;;;;;29.45;13.45;;;17.00;99.90;;;;;;6239137;23;20021;-86
2023/08/22 06:03:07;;;;;;;22.23;13.55;;;17.10;99.90;;;;;;6214194;23;20019;-86
2023/08/22 06:05:55;;;;;;;24.48;13.80;;;17.30;99.90;;;;;;6214237;23;20009;-86
2023/08/22 06:08:21;;;;;;;21.65;13.98;;;17.30;99.90;;;;;;6131563;23;20021;-90
2023/08/22 06:10:53;;;;;;;21.45;13.75;;;17.50;99.90;;;;;;6230287;22;20078;-91
2023/08/22 06:13:25;;;;;;;22.30;14.07;;;17.40;99.90;;;;;;6188851;23;20344;-91
2023/08/22 06:15:57;;;;;;;21.10;14.48;;;17.50;99.90;;;;;;6188382;23;20341;-90
2023/08/22 06:21:51;;;;;;;22.85;14.57;;;17.80;99.90;;;;;;6245310;22;20016;-91
2023/08/22 06:24:17;;;;;;;24.92;14.85;;;17.80;99.90;;;;;;6246652;23;20024;-88
2023/08/22 06:26:43;;;;;;;25.20;13.85;;;18.10;99.90;;;;;;6245851;23;20019;-87
2023/08/22 06:29:18;;;;;;;20.40;13.65;;;18.30;99.90;;;;;;6245442;23;20058;-86
2023/08/22 06:32:01;;;;;;;22.20;14.00;;;18.60;99.90;;;;;;6244795;23;20064;-85
2023/08/22 06:34:31;;;;;;;21.13;12.32;;;18.50;99.90;;;;;;6243161;23;20027;-86
2023/08/22 06:37:15;;;;;;;21.30;12.98;;;18.70;99.90;;;;;;6245718;22;20016;-86
2023/08/22 06:39:40;;;;;;;19.73;12.38;;;18.80;99.90;;;;;;6243896;23;20016;-86
2023/08/22 06:42:06;;;;;;;22.30;12.65;;;18.90;99.90;;;;;;6245435;23;20012;-85
2023/08/22 06:44:32;;;;;;;18.60;11.98;;;19.00;99.90;;;;;;6245638;22;20340;-86
2023/08/22 06:46:58;;;;;;;21.13;11.75;;;19.00;99.90;;;;;;6243818;23;20016;-85
2023/08/22 06:49:23;;;;;;;19.38;11.82;;;19.10;99.90;;;;;;6243357;23;20496;-85
2023/08/22 06:51:49;;;;;;;19.65;10.77;;;19.20;99.90;;;;;;6244106;23;20102;-84
2023/08/22 06:54:15;;;;;;;21.80;10.55;;;19.20;99.90;;;;;;6246095;23;20408;-85
2023/08/22 06:56:53;;;;;;;16.15;10.60;;;19.30;99.90;;;;;;6242133;23;20020;-85
2023/08/22 06:59:19;;;;;;;18.40;10.73;;;19.40;99.90;;;;;;6246117;22;20302;-86
2023/08/22 07:01:44;;;;;;;19.02;9.95;;;19.60;99.90;;;;;;6249306;23;20105;-86
2023/08/22 07:04:19;;;;;;;16.98;9.95;;;19.70;99.90;;;;;;6245839;23;20058;-85
2023/08/22 07:06:45;;;;;;;18.08;9.93;;;19.80;99.90;;;;;;6245712;22;20013;-85
2023/08/22 07:09:11;;;;;;;17.52;9.55;;;19.90;99.90;;;;;;6244107;23;20031;-86
2023/08/22 07:11:36;;;;;;;16.45;9.30;;;20.00;99.90;;;;;;6242833;23;20040;-86
2023/08/22 07:14:20;;;;;;;14.98;8.73;;;20.00;99.90;;;;;;6244167;23;20033;-86
2023/08/22 07:16:46;;;;;;;18.98;8.95;;;20.00;99.90;;;;;;6242901;23;20012;-86
2023/08/22 07:19:12;;;;;;;15.68;8.70;;;20.10;99.90;;;;;;6241776;22;20027;-86
2023/08/22 07:21:47;;;;;;;;;;;;;;;;;;;;;
2023/08/22 07:24:20;;;;;;;15.40;8.05;;;20.00;99.90;;;;;;6186815;23;20380;-86
2023/08/22 07:26:45;;;;;;;15.07;8.40;;;20.10;99.90;;;;;;6215235;23;20043;-85
2023/08/22 07:29:21;;;;;;;16.58;8.60;;;20.20;99.90;;;;;;6186148;23;20020;-85
2023/08/22 07:31:46;;;;;;;16.55;8.77;;;20.20;99.90;;;;;;6213744;23;20019;-86
2023/08/22 07:34:47;;;;;;;15.75;8.07;;;20.30;99.90;;;;;;6216252;23;20020;-86
2023/08/22 07:37:16;;;;;;;16.10;8.32;;;20.40;99.90;;;;;;6224339;23;20212;-86
2023/08/22 07:39:42;;;;;;;16.08;8.27;;;20.50;99.90;;;;;;6193775;23;20024;-85
2023/08/22 07:42:25;;;;;;;14.10;7.80;;;20.70;99.90;;;;;;6188929;23;20433;-86
2023/08/22 07:44:51;;;;;;;14.57;7.68;;;20.80;99.90;;;;;;6187239;23;20043;-86
2023/08/22 07:50:57;;;;;;;14.50;6.70;;;21.10;99.90;;;;;;6214979;23;20385;-86
2023/08/22 07:53:41;;;;;;;15.85;6.65;;;21.20;99.90;;;;;;6187713;23;20024;-86
2023/08/22 07:56:07;;;;;;;12.77;6.43;;;21.30;99.90;;;;;;6188326;23;20052;-86
2023/08/22 07:58:54;;;;;;;15.20;6.35;;;21.40;99.90;;;;;;6190526;23;20031;-86
2023/08/22 08:01:30;;;;;;;;;;;;;;;;;;;;;
2023/08/22 08:04:06;;;;;;;12.77;6.53;;;21.60;99.90;;;;;;6142770;23;20017;-86
2023/08/22 08:06:36;;;;;;;12.43;6.50;;;21.70;99.90;;;;;;6189922;23;20017;-86
2023/08/22 08:09:04;;;;;;;13.93;7.22;;;21.80;99.90;;;;;;6217058;23;20012;-86
2023/08/22 08:11:30;;;;;;;15.75;6.30;;;22.00;99.90;;;;;;6217121;23;20449;-86
2023/08/22 08:14:11;;;;;;;13.63;6.38;;;22.10;99.90;;;;;;6188641;23;20461;-86
2023/08/22 08:16:37;;;;;;;13.40;6.30;;;22.30;99.90;;;;;;6217223;23;20044;-86
2023/08/22 08:19:15;;;;;;;16.15;6.68;;;22.30;99.90;;;;;;6217238;23;20040;-86
2023/08/22 08:21:41;;;;;;;12.65;6.85;;;22.30;99.90;;;;;;6216010;23;20560;-85
2023/08/22 08:24:08;;;;;;;10.32;5.35;;;22.50;99.90;;;;;;6245908;23;20038;-86
2023/08/22 08:26:34;;;;;;;12.20;5.45;;;22.50;99.90;;;;;;6246895;23;20020;-86
2023/08/22 08:29:00;;;;;;;10.65;4.78;;;22.60;99.90;;;;;;6244821;23;20383;-87
2023/08/22 08:32:00;;;;;;;10.18;4.38;;;22.60;99.90;;;;;;6246468;23;20024;-87
2023/08/22 08:34:26;;;;;;;8.65;3.30;;;22.70;99.90;;;;;;6245123;23;20027;-86
2023/08/22 08:37:04;;;;;;;9.75;4.00;;;22.60;99.90;;;;;;6246995;23;20020;-87
2023/08/22 08:39:30;;;;;;;10.63;3.30;;;22.70;99.90;;;;;;6247681;22;20014;-87
2023/08/22 08:45:44;;;;;;;9.18;2.75;;;22.50;99.90;;;;;;6245843;23;20571;-87
2023/08/22 08:48:10;;;;;;;8.02;2.75;;;22.50;99.90;;;;;;6245618;23;20070;-87
2023/08/22 08:50:38;;;;;;;10.27;3.25;;;22.50;99.90;;;;;;6245642;23;20024;-87
2023/08/22 08:53:04;;;;;;;8.98;3.30;;;22.50;99.90;;;;;;6248781;23;20020;-87
2023/08/22 08:55:31;;;;;;;9.95;3.45;;;22.50;99.90;;;;;;6250166;23;20065;-88
2023/08/22 08:57:59;;;;;;;8.77;3.30;;;22.50;99.90;;;;;;6247239;23;20031;-87
2023/08/22 09:00:25;;;;;;;8.88;3.10;;;22.50;99.90;;;;;;6245533;23;20016;-88
2023/08/22 09:03:05;;;;;;;8.68;2.95;;;22.70;99.90;;;;;;6239052;22;20012;-88
2023/08/22 09:05:34;;;;;;;10.43;3.00;;;22.80;99.90;;;;;;6215173;23;20023;-89
2023/08/22 09:08:19;;;;;;;10.38;3.25;;;23.20;99.90;;;;;;6215063;23;20017;-88
2023/08/22 09:13:42;;;;;;;10.13;2.92;;;23.00;99.90;;;;;;6251092;22;20028;-87
2023/08/22 09:16:08;;;;;;;8.32;2.80;;;23.10;99.90;;;;;;6246433;22;20020;-88
2023/08/22 09:19:01;;;;;;;8.30;2.70;;;23.20;99.90;;;;;;6245079;23;20382;-87
2023/08/22 09:22:05;;;;;;;6.88;2.08;;;23.20;99.90;;;;;;6245747;23;20012;-88
2023/08/22 09:24:32;;;;;;;;;;;23.10;99.90;;;;;;6246381;22;20070;-86
2023/08/22 09:27:00;;;;;;;7.28;2.20;;;23.20;99.90;;;;;;6244969;23;19985;-87
2023/08/22 09:29:44;;;;;;;7.00;2.30;;;23.20;99.90;;;;;;6252986;22;20008;-85
2023/08/22 09:32:13;;;;;;;6.22;1.98;;;23.10;99.90;;;;;;6244359;23;20530;-87
2023/08/22 09:35:11;;;;;;;7.15;2.35;;;22.90;99.90;;;;;;6245506;23;20019;-86
2023/08/22 09:38:04;;;;;;;7.15;2.38;;;22.80;99.90;;;;;;6242609;23;20058;-87
2023/08/22 09:40:29;;;;;;;6.70;2.10;;;22.60;99.90;;;;;;6245567;23;20019;-86
2023/08/22 09:43:04;;;;;;;7.18;2.20;;;22.60;99.90;;;;;;6244946;23;20040;-87
2023/08/22 09:45:31;;;;;;;6.25;2.10;;;22.60;99.90;;;;;;6246272;22;20504;-86
2023/08/22 09:48:00;;;;;;;7.85;2.33;;;22.70;99.90;;;;;;6243865;22;20028;-86
2023/08/22 09:50:29;;;;;;;7.55;2.80;;;22.80;99.90;;;;;;6245117;23;20518;-88
2023/08/22 09:53:15;;;;;;;8.43;2.47;;;23.10;99.90;;;;;;6245641;23;20020;-88
2023/08/22 10:02:15;;;;;;;9.10;2.60;;;23.50;99.90;;;;;;6100641;23;20022;-88
2023/08/22 10:05:01;;;;;;;8.43;2.40;;;23.80;99.90;;;;;;6099103;23;20025;-88
2023/08/22 10:07:39;;;;;;;7.32;2.53;;;24.00;99.90;;;;;;6130178;23;20025;-87
2023/08/22 10:10:22;;;;;;;8.75;2.42;;;24.20;99.90;;;;;;6100012;23;20486;-87
2023/08/22 10:12:57;;;;;;;8.63;2.42;;;24.20;99.90;;;;;;6099040;23;20018;-87
2023/08/22 10:15:33;;;;;;;7.88;2.10;;;24.10;99.90;;;;;;6124432;23;20037;-87
2023/08/22 10:17:59;;;;;;;7.35;2.00;;;24.10;99.90;;;;;;6099577;23;20100;-87
2023/08/22 10:20:41;;;;;;;6.95;2.42;;;24.10;99.90;;;;;;6098276;23;20018;-88
2023/08/22 10:23:44;;;;;;;5.47;2.00;;;24.10;99.90;;;;;;6124195;23;20025;-87
2023/08/22 10:26:34;;;;;;;7.97;2.22;;;24.20;99.90;;;;;;6151723;23;20043;-86
2023/08/22 10:29:54;;;;;;;7.40;2.10;;;24.50;99.90;;;;;;6218991;23;20102;-88
2023/08/22 10:33:10;;;;;;;7.22;2.03;;;24.30;99.30;;;;;;6123686;23;20014;-87
2023/08/22 10:35:56;;;;;;;7.70;2.17;;;24.70;99.60;;;;;;6147742;23;20388;-90
2023/08/22 10:38:57;;;;;;;7.15;2.05;;;24.50;99.90;;;;;;6189394;23;20025;-90
2023/08/22 10:42:04;;;;;;;5.90;1.95;;;24.00;99.80;;;;;;6217352;23;20044;-88
2023/08/22 10:47:32;;;;;;;7.43;2.38;;;23.80;99.90;;;;;;6218256;23;20107;-89
2023/08/22 10:50:00;;;;;;;8.60;2.30;;;24.10;99.90;;;;;;6190252;23;20017;-88
2023/08/22 10:53:10;;;;;;;6.47;1.73;;;24.30;99.90;;;;;;6190764;23;20070;-87
2023/08/22 10:55:37;;;;;;;8.18;2.28;;;24.60;99.90;;;;;;6214212;23;20492;-85
2023/08/22 10:58:42;;;;;;;6.38;2.03;;;24.80;99.90;;;;;;6188415;23;20021;-89
2023/08/22 11:01:22;;;;;;;7.00;2.10;;;24.80;99.90;;;;;;6041232;23;20014;-86
2023/08/22 11:03:48;;;;;;;7.72;2.22;;;24.70;99.90;;;;;;6040350;23;20081;-86
2023/08/22 11:06:26;;;;;;;8.75;2.20;;;24.40;99.90;;;;;;6133604;23;20021;-85
2023/08/22 11:08:52;;;;;;;5.93;2.10;;;24.30;99.90;;;;;;6184301;23;20020;-85
2023/08/22 11:11:19;;;;;;;7.28;2.22;;;24.30;99.90;;;;;;6159102;23;20028;-85
2023/08/22 11:13:48;;;;;;;7.63;2.42;;;24.40;99.90;;;;;;6185261;23;20009;-84
2023/08/22 11:16:35;;;;;;;8.13;2.20;;;24.20;99.90;;;;;;6157322;23;20025;-86
2023/08/22 11:19:17;;;;;;;;;;;;;;;;;;;;;
2023/08/22 11:21:58;;;;;;;6.57;2.08;;;24.20;99.90;;;;;;6191237;23;20009;-87
2023/08/22 11:25:09;;;;;;;6.43;2.10;;;24.50;99.70;;;;;;6157748;23;20504;-87
2023/08/22 11:27:53;;;;;;;8.02;2.20;;;24.80;99.90;;;;;;6090594;23;20020;-88
2023/08/22 11:30:38;;;;;;;7.03;2.15;;;25.00;99.30;;;;;;6184386;23;20063;-91
2023/08/22 11:33:34;;;;;;;7.57;2.30;;;25.30;99.10;;;;;;6184746;23;20020;-87
2023/08/22 11:36:55;;;;;;;8.68;2.40;;;25.20;99.70;;;;;;6152329;23;20090;-88
2023/08/22 11:47:29;;;;;;;;;;;;;;;;;;;;;
2023/08/22 11:51:26;;;;;;;;;;;;;;;;;;;;;
2023/08/22 11:57:42;;;;;;;5.13;1.48;;;25.70;96.60;;;;;;6217301;23;20071;-88
2023/08/22 12:01:14;;;;;;;5.88;1.70;;;25.90;97.40;;;;;;6180717;23;20044;-90
2023/08/22 12:03:47;;;;;;;5.82;1.60;;;25.80;96.10;;;;;;6183326;23;20024;-87
2023/08/22 12:06:13;;;;;;;6.03;1.60;;;26.00;96.40;;;;;;6182177;23;20021;-86
2023/08/22 12:09:34;;;;;;;;;;;;;;;;;;;;;
2023/08/22 12:12:32;;;;;;;5.68;1.75;;;26.40;95.10;;;;;;6182629;23;20024;-87
2023/08/22 12:15:15;;;;;;;7.57;1.95;;;26.40;96.40;;;;;;6200370;22;20017;-86
2023/08/22 12:17:41;;;;;;;5.63;1.75;;;26.50;96.40;;;;;;6220202;23;20029;-87
2023/08/22 12:21:16;;;;;;;;;;;;;;;;;;;;;
2023/08/22 12:24:00;;;;;;;5.30;1.73;;;26.70;96.50;;;;;;6173064;22;20036;-85
2023/08/22 12:26:52;;;;;;;5.38;1.70;;;26.80;96.60;;;;;;6212530;23;20345;-85
2023/08/22 12:29:32;;;;;;;5.15;1.75;;;27.00;95.70;;;;;;6214795;23;20084;-86
2023/08/22 12:32:10;;;;;;;4.00;1.40;;;26.90;95.90;;;;;;6214461;23;20075;-85
2023/08/22 12:34:48;;;;;;;6.20;1.60;;;26.90;94.70;;;;;;6213833;23;20314;-85
2023/08/22 12:37:13;;;;;;;4.70;1.40;;;26.80;95.10;;;;;;6215054;23;20059;-86
2023/08/22 12:39:54;;;;;;;6.85;1.60;;;26.90;95.90;;;;;;6212557;23;20017;-85
2023/08/22 12:42:20;;;;;;;9.65;1.85;;;27.10;95.40;;;;;;6211695;23;20468;-86
2023/08/22 12:45:06;;;;;;;5.75;1.67;;;27.00;94.80;;;;;;6215237;23;20016;-85
2023/08/22 12:47:32;;;;;;;3.47;1.52;;;26.80;93.70;;;;;;6215490;23;20417;-85
2023/08/22 12:50:12;;;;;;;5.20;1.60;;;26.80;94.60;;;;;;6216473;23;20009;-86
2023/08/22 12:52:38;;;;;;;6.05;1.58;;;26.90;94.40;;;;;;6214899;23;20464;-86
2023/08/22 12:55:17;;;;;;;4.35;1.48;;;26.90;95.00;;;;;;6213910;23;20012;-86
2023/08/22 12:57:43;;;;;;;6.15;1.70;;;26.90;94.40;;;;;;6214808;23;20536;-86
2023/08/22 13:00:26;;;;;;;2.72;1.30;;;27.00;95.10;;;;;;6214627;23;20044;-85
2023/08/22 13:02:52;;;;;;;7.82;1.60;;;27.10;93.20;;;;;;6215401;23;20081;-86
2023/08/22 13:05:18;;;;;;;6.72;1.30;;;27.20;94.00;;;;;;6215199;23;20016;-86
2023/08/22 13:07:50;;;;;;;5.65;1.50;;;27.50;94.00;;;;;;6216257;23;20023;-86
2023/08/22 13:10:16;;;;;;;4.15;1.40;;;27.60;93.70;;;;;;6214008;23;20012;-85
2023/08/22 13:12:50;;;;;;;3.95;1.30;;;27.50;94.10;;;;;;6216268;23;20020;-85
2023/08/22 13:15:16;;;;;;;3.25;1.23;;;27.40;92.50;;;;;;6213779;23;20044;-85
2023/08/22 13:17:42;;;;;;;3.17;1.40;;;27.70;94.00;;;;;;6216054;23;20016;-85
2023/08/22 13:20:26;;;;;;;5.55;1.90;;;27.60;93.60;;;;;;6217547;23;20021;-86
2023/08/22 13:22:51;;;;;;;3.70;1.30;;;27.50;92.60;;;;;;6208660;23;20038;-84
2023/08/22 13:26:07;;;;;;;5.97;1.40;;;27.70;93.40;;;;;;6216681;23;20052;-85
2023/08/22 13:28:58;;;;;;;4.68;1.40;;;27.40;91.70;;;;;;6188280;23;20074;-84
2023/08/22 13:32:02;;;;;;;5.05;1.60;;;27.60;93.00;;;;;;6188734;23;20337;-84
2023/08/22 13:34:28;;;;;;;4.88;1.50;;;27.30;92.10;;;;;;6129992;23;20017;-84
2023/08/22 13:37:18;;;;;;;5.03;1.70;;;27.30;92.50;;;;;;6214985;23;20027;-84
2023/08/22 13:39:53;;;;;;;7.20;1.83;;;27.50;92.70;;;;;;6133110;23;20024;-84
2023/08/22 13:42:19;;;;;;;4.28;1.60;;;27.60;92.60;;;;;;6216229;23;20020;-84
2023/08/22 13:44:50;;;;;;;5.57;1.92;;;27.70;93.00;;;;;;6194917;22;20017;-84
2023/08/22 13:47:16;;;;;;;6.18;1.95;;;27.80;92.80;;;;;;6216308;23;20021;-83
2023/08/22 13:49:42;;;;;;;9.35;1.90;;;27.80;93.00;;;;;;6188264;23;20028;-84
2023/08/22 13:52:42;;;;;;;;;;;;;;;;;;;;;
2023/08/22 13:55:49;;;;;;;5.95;1.80;;;27.80;93.10;;;;;;6174449;23;20088;-88
2023/08/22 13:58:15;;;;;;;5.93;1.90;;;28.10;93.10;;;;;;6205105;23;20016;-85
2023/08/22 14:00:50;;;;;;;7.28;1.90;;;28.30;93.50;;;;;;6188678;23;20019;-83
2023/08/22 14:03:15;;;;;;;7.72;1.98;;;28.10;92.50;;;;;;6215991;23;20441;-83
2023/08/22 14:05:41;;;;;;;5.25;1.80;;;28.10;93.30;;;;;;6188021;23;20021;-83
2023/08/22 14:08:07;;;;;;;7.35;2.30;;;28.10;93.50;;;;;;6216195;23;20148;-82
2023/08/22 14:10:33;;;;;;;6.60;1.95;;;28.00;93.80;;;;;;6189250;23;20052;-83
2023/08/22 14:12:59;;;;;;;7.40;1.90;;;28.10;93.90;;;;;;6188134;23;20030;-83
2023/08/22 14:15:34;;;;;;;6.78;2.28;;;28.30;94.10;;;;;;6188995;23;20016;-83
2023/08/22 14:18:00;;;;;;;8.15;2.40;;;28.20;93.90;;;;;;6188211;23;20341;-84
2023/08/22 14:20:38;;;;;;;8.38;2.70;;;28.10;94.50;;;;;;6188331;23;20020;-84
2023/08/22 14:23:03;;;;;;;8.55;2.88;;;28.10;94.20;;;;;;6188714;23;20028;-84
2023/08/22 14:26:05;;;;;;;9.77;2.78;;;28.00;94.60;;;;;;6188808;23;20017;-84
2023/08/22 14:28:37;;;;;;;8.48;2.55;;;27.80;93.70;;;;;;6187245;23;20021;-83
2023/08/22 14:31:03;;;;;;;6.88;2.40;;;27.50;94.40;;;;;;6189048;23;20025;-84
2023/08/22 14:33:40;;;;;;;9.35;2.58;;;27.40;94.80;;;;;;6214738;23;20020;-84
2023/08/22 14:36:07;;;;;;;8.63;3.10;;;27.20;94.70;;;;;;6189011;23;20024;-83
2023/08/22 14:38:45;;;;;;;10.45;3.90;;;26.80;95.20;;;;;;6188972;23;20348;-87
2023/08/22 14:41:23;;;;;;;8.00;3.10;;;26.80;95.80;;;;;;6187209;23;20024;-83
2023/08/22 14:43:49;;;;;;;9.70;3.90;;;27.10;96.20;;;;;;6187968;23;20013;-83
2023/08/22 14:46:14;;;;;;;10.82;3.67;;;27.30;96.10;;;;;;6213336;23;20051;-82
2023/08/22 14:48:50;;;;;;;9.40;3.75;;;27.40;95.80;;;;;;6187220;23;20032;-82
2023/08/22 14:51:18;;;;;;;10.45;3.45;;;27.20;95.40;;;;;;6188850;23;20017;-82
2023/08/22 14:53:43;;;;;;;10.35;3.47;;;27.00;95.70;;;;;;6187162;23;20088;-83
2023/08/22 14:56:09;;;;;;;8.57;3.25;;;26.70;95.90;;;;;;6189485;23;20449;-82
2023/08/22 14:58:43;;;;;;;8.77;3.00;;;26.60;96.20;;;;;;6188303;23;20024;-83
2023/08/22 15:01:17;;;;;;;9.05;3.88;;;26.80;96.50;;;;;;6214846;23;20107;-83
2023/08/22 15:03:42;;;;;;;8.55;3.40;;;27.00;96.30;;;;;;6189230;23;20031;-84
2023/08/22 15:06:08;;;;;;;10.82;3.97;;;27.20;96.50;;;;;;6188763;23;20020;-83
2023/08/22 15:08:40;;;;;;;9.85;4.10;;;27.10;96.40;;;;;;6187485;23;20024;-83
2023/08/22 15:11:06;;;;;;;9.07;3.55;;;27.10;96.50;;;;;;6188757;23;20018;-84
2023/08/22 15:13:39;;;;;;;9.68;3.80;;;27.20;96.70;;;;;;6215221;23;20096;-85
2023/08/22 15:16:19;;;;;;;;;;;27.40;96.30;;;;;;6214959;23;20020;-85
2023/08/22 15:19:09;;;;;;;8.48;3.45;;;27.50;96.20;;;;;;6187772;23;19970;-84
2023/08/22 15:22:08;;;;;;;10.57;3.28;;;27.40;96.30;;;;;;6188311;23;20445;-85
2023/08/22 15:24:34;;;;;;;10.55;3.60;;;26.80;95.50;;;;;;6192153;23;20027;-84
2023/08/22 15:27:09;;;;;;;9.20;2.90;;;26.70;96.10;;;;;;6216759;23;20020;-84
2023/08/22 15:30:17;;;;;;;;;;;;;;;;;;;;;
2023/08/22 15:33:39;;;;;;;8.85;3.65;;;27.10;96.00;;;;;;6187245;23;20021;-85
2023/08/22 15:36:29;;;;;;;10.35;4.00;;;27.50;96.20;;;;;;6092883;23;20352;-85
2023/08/22 15:39:06;;;;;;;10.50;4.13;;;27.60;95.50;;;;;;6068582;23;20022;-86
2023/08/22 15:41:40;;;;;;;8.90;3.85;;;27.50;96.00;;;;;;6164582;23;20143;-84
2023/08/22 15:44:12;;;;;;;9.25;3.50;;;27.30;96.10;;;;;;6214516;23;20468;-85
2023/08/22 15:50:24;;;;;;;10.05;4.57;;;27.10;95.50;;;;;;6097377;23;20069;-86
2023/08/22 15:56:21;;;;;;;10.82;4.60;;;26.90;95.60;;;;;;6011868;23;20023;-83
2023/08/22 16:02:45;;;;;;;10.10;4.88;;;26.20;96.30;;;;;;5953507;24;20461;-84
2023/08/22 16:05:11;;;;;;;10.95;4.68;;;25.90;96.60;;;;;;5953098;23;20349;-85
2023/08/22 16:07:37;;;;;;;10.68;4.80;;;25.70;96.80;;;;;;6030664;23;20022;-85
2023/08/22 16:10:08;;;;;;;9.95;4.18;;;25.80;97.00;;;;;;6068417;23;20416;-85
2023/08/22 16:12:53;;;;;;;10.77;5.22;;;25.80;97.30;;;;;;6090795;23;20021;-85
2023/08/22 16:15:37;;;;;;;10.63;5.15;;;25.80;97.50;;;;;;6068210;23;20033;-85
2023/08/22 16:19:19;;;;;;;11.88;5.90;;;25.80;97.60;;;;;;6074910;23;20358;-85
2023/08/22 16:21:53;;;;;;;9.93;5.10;;;25.60;98.00;;;;;;6179844;22;20075;-86
2023/08/22 16:27:49;;;;;;;11.48;5.15;;;25.40;98.50;;;;;;6151235;23;20504;-85
2023/08/22 16:34:21;;;;;;;;;;;;;;;;;;;;;
2023/08/22 16:37:08;;;;;;;11.35;5.20;;;25.60;98.40;;;;;;6021049;23;20022;-85
2023/08/22 16:40:10;;;;;;;10.25;4.90;;;25.30;98.40;;;;;;6122219;23;20466;-85
2023/08/22 16:43:09;;;;;;;9.95;4.72;;;25.20;99.00;;;;;;5983821;23;20019;-84
2023/08/22 16:46:16;;;;;;;12.80;5.07;;;25.10;99.00;;;;;;5909701;23;20061;-86
2023/08/22 16:49:27;;;;;;;11.25;5.00;;;25.10;99.10;;;;;;6007435;23;20536;-86
2023/08/22 16:52:11;;;;;;;11.68;4.93;;;25.10;99.40;;;;;;5981270;23;20035;-85
2023/08/22 16:58:25;;;;;;;9.70;3.90;;;25.20;99.50;;;;;;5985415;23;20103;-86
2023/08/22 17:04:51;;;;;;;11.60;4.10;;;25.30;99.30;;;;;;5957470;23;20091;-85
2023/08/22 17:07:16;;;;;;;10.73;4.07;;;25.20;98.90;;;;;;5984112;23;20102;-84
2023/08/22 17:09:42;;;;;;;10.23;3.80;;;25.20;99.20;;;;;;5983392;23;20115;-84
2023/08/22 17:12:09;;;;;;;9.80;3.95;;;25.20;99.30;;;;;;6007857;23;20461;-84
2023/08/22 17:14:47;;;;;;;12.00;3.63;;;25.20;99.50;;;;;;5982411;23;20461;-85
2023/08/22 17:17:13;;;;;;;9.85;3.90;;;25.20;99.90;;;;;;6007702;23;20024;-84
2023/08/22 17:19:39;;;;;;;11.65;4.07;;;25.00;99.90;;;;;;6082510;23;20022;-84
2023/08/22 17:22:28;;;;;;;12.93;3.67;;;24.90;99.90;;;;;;6096689;23;20537;-84
2023/08/22 17:24:54;;;;;;;9.95;3.08;;;25.00;99.90;;;;;;6098030;23;20022;-84
2023/08/22 17:27:36;;;;;;;10.00;2.97;;;24.90;99.90;;;;;;6122554;23;20106;-85
2023/08/22 17:30:03;;;;;;;9.25;2.80;;;24.90;99.90;;;;;;6096410;23;20021;-85
2023/08/22 17:32:44;;;;;;;8.60;3.05;;;24.80;99.90;;;;;;6124999;23;20014;-84
2023/08/22 17:35:09;;;;;;;10.75;2.95;;;24.70;99.90;;;;;;6139301;23;20456;-84
2023/08/22 17:37:47;;;;;;;8.60;2.72;;;24.80;99.90;;;;;;6156522;23;20052;-83
2023/08/22 17:40:13;;;;;;;7.70;2.60;;;25.00;99.70;;;;;;6199195;22;20012;-84
2023/08/22 17:43:04;;;;;;;9.70;2.67;;;25.20;99.70;;;;;;6210780;23;20056;-84
2023/08/22 17:45:40;;;;;;;8.65;2.65;;;25.20;99.40;;;;;;6214936;23;20024;-83
2023/08/22 17:48:07;;;;;;;8.43;2.60;;;25.10;99.30;;;;;;6214562;23;20020;-83
2023/08/22 17:50:41;;;;;;;9.23;2.45;;;25.00;99.60;;;;;;6211899;23;20027;-83
2023/08/22 17:53:07;;;;;;;8.32;2.50;;;25.10;99.60;;;;;;6212908;23;20016;-83
2023/08/22 17:55:33;;;;;;;8.63;2.60;;;24.70;99.80;;;;;;6215080;23;20020;-83
2023/08/22 17:58:28;;;;;;;8.55;2.70;;;24.30;99.90;;;;;;6212778;23;20437;-84
2023/08/22 18:01:03;;;;;;;8.93;2.70;;;23.80;99.90;;;;;;6181384;23;20104;-83
2023/08/22 18:03:38;;;;;;;10.77;3.00;;;23.50;99.90;;;;;;6212744;23;20025;-83
2023/08/22 18:06:04;;;;;;;8.25;2.75;;;23.30;99.90;;;;;;6213445;23;20352;-83
2023/08/22 18:08:33;;;;;;;8.20;2.80;;;23.10;99.90;;;;;;6212678;23;20048;-84
2023/08/22 18:11:14;;;;;;;8.30;2.60;;;22.90;99.90;;;;;;6213686;23;20012;-84
2023/08/22 18:13:49;;;;;;;8.90;2.83;;;22.80;99.90;;;;;;6211947;23;20031;-83
2023/08/22 18:16:26;;;;;;;9.73;2.70;;;22.70;99.90;;;;;;6212591;23;20016;-83
2023/08/22 18:18:52;;;;;;;10.93;2.83;;;22.60;99.90;;;;;;6211016;23;20028;-82
2023/08/22 18:21:18;;;;;;;11.70;3.05;;;22.50;99.90;;;;;;6214545;23;20441;-82
2023/08/22 18:23:43;;;;;;;8.30;2.67;;;22.40;99.90;;;;;;6212074;23;20028;-83
2023/08/22 18:26:18;;;;;;;8.15;2.50;;;22.30;99.90;;;;;;6211197;23;20020;-83
2023/08/22 18:28:44;;;;;;;9.07;2.40;;;22.10;99.90;;;;;;6212067;23;20019;-83
2023/08/22 18:31:24;;;;;;;7.93;2.40;;;22.10;99.90;;;;;;6212457;23;20066;-82
2023/08/22 18:33:53;;;;;;;10.02;2.80;;;22.00;99.90;;;;;;6211212;23;20016;-83
2023/08/22 18:36:21;;;;;;;7.60;2.30;;;21.90;99.90;;;;;;6211986;23;20027;-82
2023/08/22 18:38:46;;;;;;;8.90;2.50;;;21.80;99.90;;;;;;6211166;23;20449;-82
2023/08/22 18:41:13;;;;;;;8.15;2.35;;;21.70;99.90;;;;;;6212252;23;20047;-83
2023/08/22 18:43:41;;;;;;;7.43;2.55;;;21.70;99.90;;;;;;6212083;23;20025;-83
2023/08/22 18:46:07;;;;;;;8.00;2.33;;;21.60;99.90;;;;;;6210546;23;20763;-82
2023/08/22 18:48:32;;;;;;;7.05;2.40;;;21.40;99.90;;;;;;6212060;23;20032;-84
2023/08/22 18:50:59;;;;;;;8.90;2.65;;;21.40;99.90;;;;;;6211915;23;20023;-82
2023/08/22 18:53:39;;;;;;;6.80;2.35;;;21.30;99.90;;;;;;6211442;23;20095;-83
2023/08/22 18:56:04;;;;;;;7.88;2.30;;;21.20;99.90;;;;;;6212424;23;20429;-82
2023/08/22 18:58:31;;;;;;;7.47;2.38;;;21.20;99.90;;;;;;6213846;23;20444;-82
2023/08/22 19:00:57;;;;;;;9.48;2.40;;;21.10;99.90;;;;;;6211061;23;20044;-82
2023/08/22 19:03:23;;;;;;;11.10;2.50;;;21.00;99.90;;;;;;6214216;23;20099;-82
2023/08/22 19:05:50;;;;;;;7.32;2.30;;;21.00;99.90;;;;;;6212743;23;20047;-82
2023/08/22 19:08:25;;;;;;;7.82;2.30;;;20.90;99.90;;;;;;6210523;23;20008;-82
2023/08/22 19:10:51;;;;;;;7.82;2.45;;;20.80;99.90;;;;;;6211749;23;20470;-82
2023/08/22 19:13:17;;;;;;;8.07;2.45;;;20.80;99.90;;;;;;6213792;23;20016;-82
2023/08/22 19:15:45;;;;;;;8.93;2.55;;;20.60;99.90;;;;;;6212921;23;20013;-83
2023/08/22 19:18:23;;;;;;;9.25;2.55;;;20.60;99.90;;;;;;6213144;23;20027;-83
2023/08/22 19:20:49;;;;;;;8.82;2.45;;;20.50;99.90;;;;;;6212022;23;20086;-82
2023/08/22 19:23:15;;;;;;;8.48;2.60;;;20.50;99.90;;;;;;6212797;23;20008;-82
2023/08/22 19:25:41;;;;;;;9.43;2.88;;;20.50;99.90;;;;;;6213571;23;20020;-83
2023/08/22 19:28:07;;;;;;;7.70;2.53;;;20.40;99.90;;;;;;6212008;23;20013;-84
2023/08/22 19:30:45;;;;;;;9.73;2.88;;;20.40;99.90;;;;;;6212820;23;20012;-84
2023/08/22 19:33:10;;;;;;;10.65;2.88;;;20.30;99.90;;;;;;6213573;23;20035;-85
2023/08/22 19:35:38;;;;;;;11.43;2.60;;;20.30;99.90;;;;;;6210218;23;20091;-85
2023/08/22 19:38:05;;;;;;;7.43;2.60;;;20.20;99.90;;;;;;6211493;23;20385;-84
2023/08/22 19:40:33;;;;;;;11.85;3.00;;;20.20;99.90;;;;;;6211969;23;20104;-84
2023/08/22 19:42:59;;;;;;;8.30;2.90;;;20.10;99.90;;;;;;6212434;23;20016;-85
2023/08/22 19:45:25;;;;;;;7.97;2.83;;;20.00;99.90;;;;;;6208016;22;20519;-87
2023/08/22 19:47:54;;;;;;;7.25;2.58;;;20.00;99.90;;;;;;6184327;23;20353;-87
2023/08/22 19:50:21;;;;;;;8.38;2.80;;;20.00;99.90;;;;;;6180962;23;20517;-87
2023/08/22 19:53:02;;;;;;;9.15;2.95;;;19.90;99.90;;;;;;6181069;23;20017;-88
2023/08/22 19:55:29;;;;;;;11.38;3.50;;;19.90;99.90;;;;;;6183512;23;20013;-87
2023/08/22 19:57:57;;;;;;;9.77;3.30;;;20.00;99.90;;;;;;6180980;23;20017;-87
2023/08/22 20:00:23;;;;;;;10.43;3.33;;;19.80;99.90;;;;;;6182960;23;20013;-88
2023/08/22 20:02:49;;;;;;;9.18;3.38;;;19.70;99.90;;;;;;6196433;23;20016;-87
2023/08/22 20:07:52;;;;;;;9.25;3.70;;;19.70;99.90;;;;;;6213710;22;19916;-88
2023/08/22 20:10:24;;;;;;;9.20;3.92;;;19.80;99.90;;;;;;6216108;23;20052;-88
2023/08/22 20:12:59;;;;;;;8.02;3.28;;;19.60;99.90;;;;;;6188975;23;20012;-88
2023/08/22 20:15:32;;;;;;;8.73;3.58;;;19.50;99.90;;;;;;6189932;23;20024;-88
2023/08/22 20:17:58;;;;;;;11.35;3.88;;;19.40;99.90;;;;;;6214384;23;20028;-89
2023/08/22 20:20:27;;;;;;;9.82;3.70;;;19.40;99.90;;;;;;6189236;23;20013;-89
2023/08/22 20:25:39;;;;;;;9.63;3.60;;;19.30;99.90;;;;;;6213595;22;20322;-89
2023/08/22 20:28:23;;;;;;;9.15;3.75;;;19.30;99.90;;;;;;6187621;23;20016;-88
2023/08/22 20:30:49;;;;;;;9.05;3.50;;;19.30;99.90;;;;;;6183968;23;20386;-89
2023/08/22 20:33:21;;;;;;;9.00;4.03;;;19.20;99.90;;;;;;6159027;23;20028;-88
2023/08/22 20:36:05;;;;;;;11.43;4.30;;;19.20;99.90;;;;;;6160414;23;20051;-89
2023/08/22 20:39:05;;;;;;;13.07;4.32;;;19.10;99.90;;;;;;6101009;23;20003;-88
2023/08/22 20:41:34;;;;;;;11.35;4.10;;;19.10;99.90;;;;;;6101705;23;20087;-89
2023/08/22 20:44:16;;;;;;;11.07;4.00;;;19.00;99.90;;;;;;6096741;23;20119;-90